CheckWX is a tool to help pilots better visualize weather data.  It is not intended as a substitute for an official pre-flight weather briefing.

00:55:22 UTC

AZUH METAR
Nakhchivan
Nakhchivan, Azerbaijan
Current

5 hours ago

AZUH 231952Z 00000KT 9999 SCT040 06/M02 Q1010
Observed
Mar-23 @ 19:52 UTC
Visibility
10,000+ meters
Flight Rules
VFR
Cloud Levels
  • Scattered at 4,000' AGL
Temperature
C / 43°F
Dewpoint
-2°C / 28°F
Humidity
57%
Altimeter
29.82" Hg
Pressure
1009.92 hPa
Previous

6 hours ago

AZUH 231856Z 08008KT 9999 SCT040 08/M03 Q1010
Observed
Mar-23 @ 18:56 UTC
Wind
  • 080° at 8 KTS
Visibility
10,000+ meters
Flight Rules
VFR
Cloud Levels
  • Scattered at 4,000' AGL
Temperature
C / 46°F
Dewpoint
-3°C / 27°F
Humidity
46%
Altimeter
29.82" Hg
Pressure
1009.92 hPa
Previous

8 hours ago

AZUH 231650Z 08008KT 9999 SCT040 11/M03 Q1010
Observed
Mar-23 @ 16:50 UTC
Wind
  • 080° at 8 KTS
Visibility
10,000+ meters
Flight Rules
VFR
Cloud Levels
  • Scattered at 4,000' AGL
Temperature
11°C / 52°F
Dewpoint
-3°C / 27°F
Humidity
38%
Altimeter
29.82" Hg
Pressure
1009.92 hPa